sensor_id;sensor_type;location;lat;lon;timestamp;temperature;humidity
44111;DHT22;29774;52.664;5.074;2023-01-08T00:01:41;10.70;81.30
44111;DHT22;29774;52.664;5.074;2023-01-08T00:04:06;10.50;81.40
44111;DHT22;29774;52.664;5.074;2023-01-08T00:06:32;10.50;81.90
44111;DHT22;29774;52.664;5.074;2023-01-08T00:08:58;10.60;82.10
44111;DHT22;29774;52.664;5.074;2023-01-08T00:11:23;10.60;82.20
44111;DHT22;29774;52.664;5.074;2023-01-08T00:13:49;10.60;81.70
44111;DHT22;29774;52.664;5.074;2023-01-08T00:16:16;10.60;81.80
44111;DHT22;29774;52.664;5.074;2023-01-08T00:18:43;10.60;81.50
44111;DHT22;29774;52.664;5.074;2023-01-08T00:21:10;10.60;81.50
44111;DHT22;29774;52.664;5.074;2023-01-08T00:23:36;10.50;81.00
44111;DHT22;29774;52.664;5.074;2023-01-08T00:26:04;10.50;81.20
44111;DHT22;29774;52.664;5.074;2023-01-08T00:28:30;10.40;80.90
44111;DHT22;29774;52.664;5.074;2023-01-08T00:30:55;10.40;80.70
44111;DHT22;29774;52.664;5.074;2023-01-08T00:33:21;10.20;80.50
44111;DHT22;29774;52.664;5.074;2023-01-08T00:35:47;10.20;81.00
44111;DHT22;29774;52.664;5.074;2023-01-08T00:38:12;10.00;80.40
44111;DHT22;29774;52.664;5.074;2023-01-08T00:40:38;10.00;81.20
44111;DHT22;29774;52.664;5.074;2023-01-08T00:43:05;9.90;80.80
44111;DHT22;29774;52.664;5.074;2023-01-08T00:45:31;9.90;81.30
44111;DHT22;29774;52.664;5.074;2023-01-08T00:47:57;9.80;81.00
44111;DHT22;29774;52.664;5.074;2023-01-08T00:50:23;9.90;81.80
44111;DHT22;29774;52.664;5.074;2023-01-08T00:52:48;10.10;82.00
44111;DHT22;29774;52.664;5.074;2023-01-08T00:55:14;10.10;81.60
44111;DHT22;29774;52.664;5.074;2023-01-08T00:57:40;10.30;82.00
44111;DHT22;29774;52.664;5.074;2023-01-08T01:00:08;10.00;80.80
44111;DHT22;29774;52.664;5.074;2023-01-08T01:02:36;9.90;81.20
44111;DHT22;29774;52.664;5.074;2023-01-08T01:05:02;9.80;81.20
44111;DHT22;29774;52.664;5.074;2023-01-08T01:07:28;9.70;81.50
44111;DHT22;29774;52.664;5.074;2023-01-08T01:09:53;9.70;81.80
44111;DHT22;29774;52.664;5.074;2023-01-08T01:12:19;9.60;82.00
44111;DHT22;29774;52.664;5.074;2023-01-08T01:14:45;9.50;81.90
44111;DHT22;29774;52.664;5.074;2023-01-08T01:17:11;9.60;82.30
44111;DHT22;29774;52.664;5.074;2023-01-08T01:19:37;9.70;82.40
44111;DHT22;29774;52.664;5.074;2023-01-08T01:22:04;9.50;82.10
44111;DHT22;29774;52.664;5.074;2023-01-08T01:24:29;9.60;82.60
44111;DHT22;29774;52.664;5.074;2023-01-08T01:26:55;9.50;82.30
44111;DHT22;29774;52.664;5.074;2023-01-08T01:29:22;9.60;82.80
44111;DHT22;29774;52.664;5.074;2023-01-08T01:31:48;9.60;82.80
44111;DHT22;29774;52.664;5.074;2023-01-08T01:34:14;9.50;82.50
44111;DHT22;29774;52.664;5.074;2023-01-08T01:36:39;9.50;82.90
44111;DHT22;29774;52.664;5.074;2023-01-08T01:39:05;9.40;82.90
44111;DHT22;29774;52.664;5.074;2023-01-08T01:41:43;9.50;83.00
44111;DHT22;29774;52.664;5.074;2023-01-08T01:44:38;9.40;82.90
44111;DHT22;29774;52.664;5.074;2023-01-08T01:47:16;9.20;83.20
44111;DHT22;29774;52.664;5.074;2023-01-08T01:49:52;9.20;83.70
44111;DHT22;29774;52.664;5.074;2023-01-08T01:52:20;9.10;84.00
44111;DHT22;29774;52.664;5.074;2023-01-08T01:54:48;9.20;84.00
44111;DHT22;29774;52.664;5.074;2023-01-08T01:57:14;9.30;84.40
44111;DHT22;29774;52.664;5.074;2023-01-08T01:59:40;9.40;84.10
44111;DHT22;29774;52.664;5.074;2023-01-08T02:02:06;9.40;84.00
44111;DHT22;29774;52.664;5.074;2023-01-08T02:04:35;9.20;83.90
44111;DHT22;29774;52.664;5.074;2023-01-08T02:09:46;9.20;83.90
44111;DHT22;29774;52.664;5.074;2023-01-08T02:12:29;9.20;84.30
44111;DHT22;29774;52.664;5.074;2023-01-08T02:15:15;9.20;84.40
44111;DHT22;29774;52.664;5.074;2023-01-08T02:18:07;9.00;84.40
44111;DHT22;29774;52.664;5.074;2023-01-08T02:20:39;9.10;84.60
44111;DHT22;29774;52.664;5.074;2023-01-08T02:28:28;9.20;84.50
44111;DHT22;29774;52.664;5.074;2023-01-08T02:30:55;9.00;84.50
44111;DHT22;29774;52.664;5.074;2023-01-08T02:33:23;9.10;85.00
44111;DHT22;29774;52.664;5.074;2023-01-08T02:36:08;9.00;84.80
44111;DHT22;29774;52.664;5.074;2023-01-08T02:38:38;9.00;85.20
44111;DHT22;29774;52.664;5.074;2023-01-08T02:41:09;9.00;85.60
44111;DHT22;29774;52.664;5.074;2023-01-08T02:43:47;8.90;85.60
44111;DHT22;29774;52.664;5.074;2023-01-08T02:46:18;9.00;85.80
44111;DHT22;29774;52.664;5.074;2023-01-08T02:48:53;8.90;86.00
44111;DHT22;29774;52.664;5.074;2023-01-08T02:51:26;8.80;86.30
44111;DHT22;29774;52.664;5.074;2023-01-08T02:53:56;8.70;86.80
44111;DHT22;29774;52.664;5.074;2023-01-08T02:56:27;8.70;87.20
44111;DHT22;29774;52.664;5.074;2023-01-08T02:58:57;8.70;87.40
44111;DHT22;29774;52.664;5.074;2023-01-08T03:01:25;8.80;87.60
44111;DHT22;29774;52.664;5.074;2023-01-08T03:03:55;8.70;87.80
44111;DHT22;29774;52.664;5.074;2023-01-08T03:06:22;8.80;87.90
44111;DHT22;29774;52.664;5.074;2023-01-08T03:08:50;8.80;88.00
44111;DHT22;29774;52.664;5.074;2023-01-08T03:11:19;8.90;88.00
44111;DHT22;29774;52.664;5.074;2023-01-08T03:13:56;8.80;88.00
44111;DHT22;29774;52.664;5.074;2023-01-08T03:16:35;8.80;88.30
44111;DHT22;29774;52.664;5.074;2023-01-08T03:19:08;9.00;88.20
44111;DHT22;29774;52.664;5.074;2023-01-08T03:21:36;9.10;88.10
44111;DHT22;29774;52.664;5.074;2023-01-08T03:24:04;9.00;88.00
44111;DHT22;29774;52.664;5.074;2023-01-08T03:26:32;9.10;88.00
44111;DHT22;29774;52.664;5.074;2023-01-08T03:28:58;9.10;87.80
44111;DHT22;29774;52.664;5.074;2023-01-08T03:31:26;9.20;87.90
44111;DHT22;29774;52.664;5.074;2023-01-08T03:33:54;9.10;87.80
44111;DHT22;29774;52.664;5.074;2023-01-08T03:36:23;9.00;87.90
44111;DHT22;29774;52.664;5.074;2023-01-08T03:38:56;9.00;88.00
44111;DHT22;29774;52.664;5.074;2023-01-08T03:41:26;9.10;87.90
44111;DHT22;29774;52.664;5.074;2023-01-08T03:43:54;9.20;87.80
44111;DHT22;29774;52.664;5.074;2023-01-08T03:46:34;9.10;87.60
44111;DHT22;29774;52.664;5.074;2023-01-08T03:49:03;9.10;87.60
44111;DHT22;29774;52.664;5.074;2023-01-08T03:51:41;9.10;87.60
44111;DHT22;29774;52.664;5.074;2023-01-08T03:54:10;9.40;87.50
44111;DHT22;29774;52.664;5.074;2023-01-08T03:56:37;9.40;87.00
44111;DHT22;29774;52.664;5.074;2023-01-08T03:59:02;9.40;86.90
44111;DHT22;29774;52.664;5.074;2023-01-08T04:01:28;9.40;86.80
44111;DHT22;29774;52.664;5.074;2023-01-08T04:03:54;9.40;86.70
44111;DHT22;29774;52.664;5.074;2023-01-08T04:06:19;9.20;86.60
44111;DHT22;29774;52.664;5.074;2023-01-08T04:08:47;9.20;86.80
44111;DHT22;29774;52.664;5.074;2023-01-08T04:11:12;9.20;86.90
44111;DHT22;29774;52.664;5.074;2023-01-08T04:13:38;9.20;86.80
44111;DHT22;29774;52.664;5.074;2023-01-08T04:16:04;9.00;87.00
44111;DHT22;29774;52.664;5.074;2023-01-08T04:18:30;8.90;87.20
44111;DHT22;29774;52.664;5.074;2023-01-08T04:20:56;8.80;87.20
44111;DHT22;29774;52.664;5.074;2023-01-08T04:23:21;8.70;87.30
44111;DHT22;29774;52.664;5.074;2023-01-08T04:25:47;8.80;87.40
44111;DHT22;29774;52.664;5.074;2023-01-08T04:28:12;8.80;87.30
44111;DHT22;29774;52.664;5.074;2023-01-08T04:30:38;8.90;87.30
44111;DHT22;29774;52.664;5.074;2023-01-08T04:33:04;8.90;87.10
44111;DHT22;29774;52.664;5.074;2023-01-08T04:35:29;8.80;86.90
44111;DHT22;29774;52.664;5.074;2023-01-08T04:37:55;8.70;86.80
44111;DHT22;29774;52.664;5.074;2023-01-08T04:40:20;8.80;86.80
44111;DHT22;29774;52.664;5.074;2023-01-08T04:42:46;8.70;86.60
44111;DHT22;29774;52.664;5.074;2023-01-08T04:45:11;8.60;86.50
44111;DHT22;29774;52.664;5.074;2023-01-08T04:47:37;8.70;86.50
44111;DHT22;29774;52.664;5.074;2023-01-08T04:50:03;8.70;86.30
44111;DHT22;29774;52.664;5.074;2023-01-08T04:52:28;8.60;86.20
44111;DHT22;29774;52.664;5.074;2023-01-08T04:54:54;8.70;86.20
44111;DHT22;29774;52.664;5.074;2023-01-08T04:57:20;8.50;86.00
44111;DHT22;29774;52.664;5.074;2023-01-08T04:59:45;8.50;86.10
44111;DHT22;29774;52.664;5.074;2023-01-08T05:02:11;8.40;86.10
44111;DHT22;29774;52.664;5.074;2023-01-08T05:04:36;8.30;86.20
44111;DHT22;29774;52.664;5.074;2023-01-08T05:07:03;8.30;86.30
44111;DHT22;29774;52.664;5.074;2023-01-08T05:09:29;8.20;86.40
44111;DHT22;29774;52.664;5.074;2023-01-08T05:11:54;8.40;86.50
44111;DHT22;29774;52.664;5.074;2023-01-08T05:14:20;8.40;86.20
44111;DHT22;29774;52.664;5.074;2023-01-08T05:16:45;8.30;86.10
44111;DHT22;29774;52.664;5.074;2023-01-08T05:19:12;8.30;86.20
44111;DHT22;29774;52.664;5.074;2023-01-08T05:21:38;8.30;86.20
44111;DHT22;29774;52.664;5.074;2023-01-08T05:24:03;8.20;86.30
44111;DHT22;29774;52.664;5.074;2023-01-08T05:26:29;8.20;86.30
44111;DHT22;29774;52.664;5.074;2023-01-08T05:28:55;8.30;86.40
44111;DHT22;29774;52.664;5.074;2023-01-08T05:31:20;8.30;86.10
44111;DHT22;29774;52.664;5.074;2023-01-08T05:33:46;8.20;86.10
44111;DHT22;29774;52.664;5.074;2023-01-08T05:36:12;8.10;86.10
44111;DHT22;29774;52.664;5.074;2023-01-08T05:38:38;8.00;86.30
44111;DHT22;29774;52.664;5.074;2023-01-08T05:41:05;7.90;86.40
44111;DHT22;29774;52.664;5.074;2023-01-08T05:43:31;7.90;86.70
44111;DHT22;29774;52.664;5.074;2023-01-08T05:45:58;7.90;86.80
44111;DHT22;29774;52.664;5.074;2023-01-08T05:48:24;8.00;86.90
44111;DHT22;29774;52.664;5.074;2023-01-08T05:50:50;8.00;86.60
44111;DHT22;29774;52.664;5.074;2023-01-08T05:53:16;8.10;86.40
44111;DHT22;29774;52.664;5.074;2023-01-08T05:55:41;8.00;86.30
44111;DHT22;29774;52.664;5.074;2023-01-08T05:58:07;8.20;86.30
44111;DHT22;29774;52.664;5.074;2023-01-08T06:00:34;8.30;86.00
44111;DHT22;29774;52.664;5.074;2023-01-08T06:02:59;8.50;85.80
44111;DHT22;29774;52.664;5.074;2023-01-08T06:05:25;8.50;85.10
44111;DHT22;29774;52.664;5.074;2023-01-08T06:07:50;8.70;85.10
44111;DHT22;29774;52.664;5.074;2023-01-08T06:10:16;8.70;84.90
44111;DHT22;29774;52.664;5.074;2023-01-08T06:12:42;9.10;85.40
44111;DHT22;29774;52.664;5.074;2023-01-08T06:15:09;9.00;84.40
44111;DHT22;29774;52.664;5.074;2023-01-08T06:17:35;8.90;83.90
44111;DHT22;29774;52.664;5.074;2023-01-08T06:20:01;8.80;83.90
44111;DHT22;29774;52.664;5.074;2023-01-08T06:22:27;8.70;84.00
44111;DHT22;29774;52.664;5.074;2023-01-08T06:24:53;8.70;84.20
44111;DHT22;29774;52.664;5.074;2023-01-08T06:27:18;8.60;84.40
44111;DHT22;29774;52.664;5.074;2023-01-08T06:29:44;8.50;84.60
44111;DHT22;29774;52.664;5.074;2023-01-08T06:32:09;8.40;85.00
44111;DHT22;29774;52.664;5.074;2023-01-08T06:34:35;8.50;85.10
44111;DHT22;29774;52.664;5.074;2023-01-08T06:37:00;8.40;85.10
44111;DHT22;29774;52.664;5.074;2023-01-08T06:39:26;8.40;85.10
44111;DHT22;29774;52.664;5.074;2023-01-08T06:41:52;8.20;85.10
44111;DHT22;29774;52.664;5.074;2023-01-08T06:44:17;8.20;85.50
44111;DHT22;29774;52.664;5.074;2023-01-08T06:46:43;8.10;85.90
44111;DHT22;29774;52.664;5.074;2023-01-08T06:49:09;8.10;86.10
44111;DHT22;29774;52.664;5.074;2023-01-08T06:51:35;8.30;86.00
44111;DHT22;29774;52.664;5.074;2023-01-08T06:54:01;8.10;85.90
44111;DHT22;29774;52.664;5.074;2023-01-08T06:56:27;8.10;86.20
44111;DHT22;29774;52.664;5.074;2023-01-08T06:58:53;8.20;86.30
44111;DHT22;29774;52.664;5.074;2023-01-08T07:01:18;8.20;86.10
44111;DHT22;29774;52.664;5.074;2023-01-08T07:03:44;8.20;86.00
44111;DHT22;29774;52.664;5.074;2023-01-08T07:06:20;8.40;86.30
44111;DHT22;29774;52.664;5.074;2023-01-08T07:08:46;8.50;85.90
44111;DHT22;29774;52.664;5.074;2023-01-08T07:11:13;8.40;85.50
44111;DHT22;29774;52.664;5.074;2023-01-08T07:13:39;8.10;85.50
44111;DHT22;29774;52.664;5.074;2023-01-08T07:16:09;8.10;85.80
44111;DHT22;29774;52.664;5.074;2023-01-08T07:18:35;7.90;85.80
44111;DHT22;29774;52.664;5.074;2023-01-08T07:21:02;7.80;86.20
44111;DHT22;29774;52.664;5.074;2023-01-08T07:23:28;8.00;86.30
44111;DHT22;29774;52.664;5.074;2023-01-08T07:25:54;8.00;86.00
44111;DHT22;29774;52.664;5.074;2023-01-08T07:28:19;7.90;86.10
44111;DHT22;29774;52.664;5.074;2023-01-08T07:30:51;8.10;86.30
44111;DHT22;29774;52.664;5.074;2023-01-08T07:33:16;7.90;86.00
44111;DHT22;29774;52.664;5.074;2023-01-08T07:35:42;7.90;86.10
44111;DHT22;29774;52.664;5.074;2023-01-08T07:38:08;7.80;86.10
44111;DHT22;29774;52.664;5.074;2023-01-08T07:40:33;7.90;86.20
44111;DHT22;29774;52.664;5.074;2023-01-08T07:43:00;7.70;86.00
44111;DHT22;29774;52.664;5.074;2023-01-08T07:45:27;7.80;86.30
44111;DHT22;29774;52.664;5.074;2023-01-08T07:47:52;7.70;86.20
44111;DHT22;29774;52.664;5.074;2023-01-08T07:50:18;7.70;86.50
44111;DHT22;29774;52.664;5.074;2023-01-08T07:52:44;7.70;86.60
44111;DHT22;29774;52.664;5.074;2023-01-08T07:55:09;7.70;86.70
44111;DHT22;29774;52.664;5.074;2023-01-08T07:57:35;7.60;86.70
44111;DHT22;29774;52.664;5.074;2023-01-08T08:00:00;7.70;86.90
44111;DHT22;29774;52.664;5.074;2023-01-08T08:02:26;7.60;86.80
44111;DHT22;29774;52.664;5.074;2023-01-08T08:04:51;7.50;87.00
44111;DHT22;29774;52.664;5.074;2023-01-08T08:07:17;7.40;87.40
44111;DHT22;29774;52.664;5.074;2023-01-08T08:09:43;7.60;87.50
44111;DHT22;29774;52.664;5.074;2023-01-08T08:12:08;7.50;87.40
44111;DHT22;29774;52.664;5.074;2023-01-08T08:14:34;7.70;87.50
44111;DHT22;29774;52.664;5.074;2023-01-08T08:17:00;7.60;87.30
44111;DHT22;29774;52.664;5.074;2023-01-08T08:19:25;7.50;87.30
44111;DHT22;29774;52.664;5.074;2023-01-08T08:21:51;7.60;87.50
44111;DHT22;29774;52.664;5.074;2023-01-08T08:24:16;7.50;87.60
44111;DHT22;29774;52.664;5.074;2023-01-08T08:26:42;7.40;87.70
44111;DHT22;29774;52.664;5.074;2023-01-08T08:29:08;7.50;87.90
44111;DHT22;29774;52.664;5.074;2023-01-08T08:31:33;7.40;88.00
44111;DHT22;29774;52.664;5.074;2023-01-08T08:33:59;7.50;88.10
44111;DHT22;29774;52.664;5.074;2023-01-08T08:36:30;7.70;88.00
44111;DHT22;29774;52.664;5.074;2023-01-08T08:38:56;8.00;88.00
44111;DHT22;29774;52.664;5.074;2023-01-08T08:41:22;7.90;87.50
44111;DHT22;29774;52.664;5.074;2023-01-08T08:43:47;8.20;87.20
44111;DHT22;29774;52.664;5.074;2023-01-08T08:46:16;8.40;86.80
44111;DHT22;29774;52.664;5.074;2023-01-08T08:48:43;8.30;86.10
44111;DHT22;29774;52.664;5.074;2023-01-08T08:51:09;8.30;86.10
44111;DHT22;29774;52.664;5.074;2023-01-08T08:53:35;8.30;85.90
44111;DHT22;29774;52.664;5.074;2023-01-08T08:56:00;8.50;86.00
44111;DHT22;29774;52.664;5.074;2023-01-08T08:58:26;8.70;85.90
44111;DHT22;29774;52.664;5.074;2023-01-08T09:00:52;8.90;85.20
44111;DHT22;29774;52.664;5.074;2023-01-08T09:03:17;8.70;84.30
44111;DHT22;29774;52.664;5.074;2023-01-08T09:05:43;8.90;84.80
44111;DHT22;29774;52.664;5.074;2023-01-08T09:08:10;9.20;84.70
44111;DHT22;29774;52.664;5.074;2023-01-08T09:10:37;9.20;83.70
44111;DHT22;29774;52.664;5.074;2023-01-08T09:13:03;9.00;83.30
44111;DHT22;29774;52.664;5.074;2023-01-08T09:15:28;9.00;83.40
44111;DHT22;29774;52.664;5.074;2023-01-08T09:17:54;9.10;83.70
44111;DHT22;29774;52.664;5.074;2023-01-08T09:20:21;9.30;83.60
44111;DHT22;29774;52.664;5.074;2023-01-08T09:22:47;9.30;83.10
44111;DHT22;29774;52.664;5.074;2023-01-08T09:25:13;9.40;82.70
44111;DHT22;29774;52.664;5.074;2023-01-08T09:27:38;9.30;82.50
44111;DHT22;29774;52.664;5.074;2023-01-08T09:30:04;9.60;83.00
44111;DHT22;29774;52.664;5.074;2023-01-08T09:32:30;9.40;81.90
44111;DHT22;29774;52.664;5.074;2023-01-08T09:34:56;9.50;82.50
44111;DHT22;29774;52.664;5.074;2023-01-08T09:37:21;9.50;82.20
44111;DHT22;29774;52.664;5.074;2023-01-08T09:39:48;9.80;82.90
44111;DHT22;29774;52.664;5.074;2023-01-08T09:42:15;10.10;82.40
44111;DHT22;29774;52.664;5.074;2023-01-08T09:44:44;10.00;81.30
44111;DHT22;29774;52.664;5.074;2023-01-08T09:49:45;10.20;82.30
44111;DHT22;29774;52.664;5.074;2023-01-08T09:52:12;10.30;82.20
44111;DHT22;29774;52.664;5.074;2023-01-08T09:54:40;10.10;80.00
44111;DHT22;29774;52.664;5.074;2023-01-08T09:57:10;10.10;80.10
44111;DHT22;29774;52.664;5.074;2023-01-08T09:59:37;10.20;80.40
44111;DHT22;29774;52.664;5.074;2023-01-08T10:02:03;10.30;80.60
44111;DHT22;29774;52.664;5.074;2023-01-08T10:04:29;10.40;80.60
44111;DHT22;29774;52.664;5.074;2023-01-08T10:07:17;10.50;80.40
44111;DHT22;29774;52.664;5.074;2023-01-08T10:09:46;10.70;80.90
44111;DHT22;29774;52.664;5.074;2023-01-08T10:12:14;10.60;79.50
44111;DHT22;29774;52.664;5.074;2023-01-08T10:14:40;10.80;80.70
44111;DHT22;29774;52.664;5.074;2023-01-08T10:17:36;10.80;79.80
44111;DHT22;29774;52.664;5.074;2023-01-08T10:20:11;11.00;80.40
44111;DHT22;29774;52.664;5.074;2023-01-08T10:22:37;11.00;79.50
44111;DHT22;29774;52.664;5.074;2023-01-08T10:25:09;11.00;79.00
44111;DHT22;29774;52.664;5.074;2023-01-08T10:27:56;11.00;79.60
44111;DHT22;29774;52.664;5.074;2023-01-08T10:30:32;11.10;79.70
44111;DHT22;29774;52.664;5.074;2023-01-08T10:33:04;10.90;78.50
44111;DHT22;29774;52.664;5.074;2023-01-08T10:35:40;10.90;78.00
44111;DHT22;29774;52.664;5.074;2023-01-08T10:38:06;10.80;78.20
44111;DHT22;29774;52.664;5.074;2023-01-08T10:40:44;10.90;78.10
44111;DHT22;29774;52.664;5.074;2023-01-08T10:43:17;10.90;78.40
44111;DHT22;29774;52.664;5.074;2023-01-08T10:45:55;10.80;78.00
44111;DHT22;29774;52.664;5.074;2023-01-08T10:48:26;10.80;78.20
44111;DHT22;29774;52.664;5.074;2023-01-08T10:51:04;11.00;79.50
44111;DHT22;29774;52.664;5.074;2023-01-08T10:53:30;11.00;78.40
44111;DHT22;29774;52.664;5.074;2023-01-08T10:56:03;11.10;79.20
44111;DHT22;29774;52.664;5.074;2023-01-08T10:58:38;11.00;77.70
44111;DHT22;29774;52.664;5.074;2023-01-08T11:01:16;11.00;78.40
44111;DHT22;29774;52.664;5.074;2023-01-08T11:03:42;11.00;79.10
44111;DHT22;29774;52.664;5.074;2023-01-08T11:06:21;11.00;78.40
44111;DHT22;29774;52.664;5.074;2023-01-08T11:09:12;11.00;78.60
44111;DHT22;29774;52.664;5.074;2023-01-08T11:11:36;11.10;78.70
44111;DHT22;29774;52.664;5.074;2023-01-08T11:14:05;11.10;78.90
44111;DHT22;29774;52.664;5.074;2023-01-08T11:16:40;11.10;78.00
44111;DHT22;29774;52.664;5.074;2023-01-08T11:19:23;11.20;78.50
44111;DHT22;29774;52.664;5.074;2023-01-08T11:22:16;11.20;78.80
44111;DHT22;29774;52.664;5.074;2023-01-08T11:24:43;11.20;77.60
44111;DHT22;29774;52.664;5.074;2023-01-08T11:27:15;11.10;77.50
44111;DHT22;29774;52.664;5.074;2023-01-08T11:38:14;11.20;77.70
44111;DHT22;29774;52.664;5.074;2023-01-08T11:40:51;11.10;77.90
44111;DHT22;29774;52.664;5.074;2023-01-08T11:46:46;11.00;78.30
44111;DHT22;29774;52.664;5.074;2023-01-08T11:49:28;11.10;78.60
44111;DHT22;29774;52.664;5.074;2023-01-08T12:00:14;10.70;79.40
44111;DHT22;29774;52.664;5.074;2023-01-08T12:11:06;10.80;79.30
44111;DHT22;29774;52.664;5.074;2023-01-08T12:14:03;10.60;79.00
44111;DHT22;29774;52.664;5.074;2023-01-08T12:22:16;10.60;78.90
44111;DHT22;29774;52.664;5.074;2023-01-08T12:27:34;10.80;80.80
44111;DHT22;29774;52.664;5.074;2023-01-08T12:32:57;10.80;79.90
44111;DHT22;29774;52.664;5.074;2023-01-08T12:35:52;10.80;78.70
44111;DHT22;29774;52.664;5.074;2023-01-08T12:38:31;10.90;80.00
44111;DHT22;29774;52.664;5.074;2023-01-08T12:41:03;10.80;79.40
44111;DHT22;29774;52.664;5.074;2023-01-08T12:44:06;10.80;78.30
44111;DHT22;29774;52.664;5.074;2023-01-08T12:46:43;10.80;79.60
44111;DHT22;29774;52.664;5.074;2023-01-08T12:49:15;10.80;78.40
44111;DHT22;29774;52.664;5.074;2023-01-08T12:52:07;10.90;79.70
44111;DHT22;29774;52.664;5.074;2023-01-08T12:54:55;10.90;78.80
44111;DHT22;29774;52.664;5.074;2023-01-08T13:00:40;11.10;80.60
44111;DHT22;29774;52.664;5.074;2023-01-08T13:03:13;11.10;78.50
44111;DHT22;29774;52.664;5.074;2023-01-08T13:05:42;11.10;78.90
44111;DHT22;29774;52.664;5.074;2023-01-08T13:08:29;11.20;79.20
44111;DHT22;29774;52.664;5.074;2023-01-08T13:10:56;11.00;77.40
44111;DHT22;29774;52.664;5.074;2023-01-08T13:13:27;11.00;78.40
44111;DHT22;29774;52.664;5.074;2023-01-08T13:21:48;11.10;79.30
44111;DHT22;29774;52.664;5.074;2023-01-08T13:26:53;10.90;77.80
44111;DHT22;29774;52.664;5.074;2023-01-08T13:29:38;10.70;77.20
44111;DHT22;29774;52.664;5.074;2023-01-08T13:35:19;11.10;79.70
44111;DHT22;29774;52.664;5.074;2023-01-08T13:37:49;11.10;78.80
44111;DHT22;29774;52.664;5.074;2023-01-08T13:40:38;11.10;78.00
44111;DHT22;29774;52.664;5.074;2023-01-08T13:43:09;11.10;78.90
44111;DHT22;29774;52.664;5.074;2023-01-08T13:45:36;11.00;78.80
44111;DHT22;29774;52.664;5.074;2023-01-08T13:48:02;11.10;79.80
44111;DHT22;29774;52.664;5.074;2023-01-08T13:50:28;11.10;79.00
44111;DHT22;29774;52.664;5.074;2023-01-08T13:53:00;11.10;78.10
44111;DHT22;29774;52.664;5.074;2023-01-08T13:55:36;10.90;77.40
44111;DHT22;29774;52.664;5.074;2023-01-08T13:58:24;10.80;77.40
44111;DHT22;29774;52.664;5.074;2023-01-08T14:00:52;10.80;77.60
44111;DHT22;29774;52.664;5.074;2023-01-08T14:03:27;10.70;78.20
44111;DHT22;29774;52.664;5.074;2023-01-08T14:06:04;10.50;76.30
44111;DHT22;29774;52.664;5.074;2023-01-08T14:08:31;10.50;78.10
44111;DHT22;29774;52.664;5.074;2023-01-08T14:10:56;10.50;77.90
44111;DHT22;29774;52.664;5.074;2023-01-08T14:13:27;10.70;79.50
44111;DHT22;29774;52.664;5.074;2023-01-08T14:16:01;10.60;78.30
44111;DHT22;29774;52.664;5.074;2023-01-08T14:18:28;10.60;78.50
44111;DHT22;29774;52.664;5.074;2023-01-08T14:20:54;10.70;79.10
44111;DHT22;29774;52.664;5.074;2023-01-08T14:23:27;10.80;80.20
44111;DHT22;29774;52.664;5.074;2023-01-08T14:26:04;10.70;77.70
44111;DHT22;29774;52.664;5.074;2023-01-08T14:28:31;10.50;78.10
44111;DHT22;29774;52.664;5.074;2023-01-08T14:30:57;10.60;78.30
44111;DHT22;29774;52.664;5.074;2023-01-08T14:33:28;10.50;78.00
44111;DHT22;29774;52.664;5.074;2023-01-08T14:35:55;10.30;77.30
44111;DHT22;29774;52.664;5.074;2023-01-08T14:38:21;10.30;78.40
44111;DHT22;29774;52.664;5.074;2023-01-08T14:40:58;10.50;78.90
44111;DHT22;29774;52.664;5.074;2023-01-08T14:43:25;10.30;77.80
44111;DHT22;29774;52.664;5.074;2023-01-08T14:45:52;10.20;78.60
44111;DHT22;29774;52.664;5.074;2023-01-08T14:48:29;10.10;78.40
44111;DHT22;29774;52.664;5.074;2023-01-08T14:51:24;10.20;79.90
44111;DHT22;29774;52.664;5.074;2023-01-08T14:53:55;10.20;79.10
44111;DHT22;29774;52.664;5.074;2023-01-08T14:56:28;10.10;79.20
44111;DHT22;29774;52.664;5.074;2023-01-08T14:58:55;10.20;79.90
44111;DHT22;29774;52.664;5.074;2023-01-08T15:01:25;10.10;79.20
44111;DHT22;29774;52.664;5.074;2023-01-08T15:04:02;10.00;79.10
44111;DHT22;29774;52.664;5.074;2023-01-08T15:06:30;10.00;79.60
44111;DHT22;29774;52.664;5.074;2023-01-08T15:08:57;10.20;80.70
44111;DHT22;29774;52.664;5.074;2023-01-08T15:11:26;10.00;79.40
44111;DHT22;29774;52.664;5.074;2023-01-08T15:13:53;10.10;79.40
44111;DHT22;29774;52.664;5.074;2023-01-08T15:16:36;10.20;80.50
44111;DHT22;29774;52.664;5.074;2023-01-08T15:19:15;10.10;79.20
44111;DHT22;29774;52.664;5.074;2023-01-08T15:21:52;9.90;78.70
44111;DHT22;29774;52.664;5.074;2023-01-08T15:24:24;9.80;79.00
44111;DHT22;29774;52.664;5.074;2023-01-08T15:26:52;9.90;79.70
44111;DHT22;29774;52.664;5.074;2023-01-08T15:29:27;10.00;79.80
44111;DHT22;29774;52.664;5.074;2023-01-08T15:32:08;10.00;79.40
44111;DHT22;29774;52.664;5.074;2023-01-08T15:34:34;10.10;79.60
44111;DHT22;29774;52.664;5.074;2023-01-08T15:36:59;9.80;78.30
44111;DHT22;29774;52.664;5.074;2023-01-08T15:39:25;9.70;78.60
44111;DHT22;29774;52.664;5.074;2023-01-08T15:41:50;9.50;79.00
44111;DHT22;29774;52.664;5.074;2023-01-08T15:44:35;9.40;79.40
44111;DHT22;29774;52.664;5.074;2023-01-08T15:47:00;9.30;79.90
44111;DHT22;29774;52.664;5.074;2023-01-08T15:49:26;9.60;80.80
44111;DHT22;29774;52.664;5.074;2023-01-08T15:51:51;9.60;80.00
44111;DHT22;29774;52.664;5.074;2023-01-08T15:54:19;9.60;80.40
44111;DHT22;29774;52.664;5.074;2023-01-08T15:56:46;9.60;79.80
44111;DHT22;29774;52.664;5.074;2023-01-08T15:59:11;9.70;80.10
44111;DHT22;29774;52.664;5.074;2023-01-08T16:01:37;9.70;80.00
44111;DHT22;29774;52.664;5.074;2023-01-08T16:04:03;9.70;79.90
44111;DHT22;29774;52.664;5.074;2023-01-08T16:06:29;9.80;79.90
44111;DHT22;29774;52.664;5.074;2023-01-08T16:08:55;9.90;80.60
44111;DHT22;29774;52.664;5.074;2023-01-08T16:11:24;9.90;79.70
44111;DHT22;29774;52.664;5.074;2023-01-08T16:13:50;9.90;79.00
44111;DHT22;29774;52.664;5.074;2023-01-08T16:16:16;9.90;79.50
44111;DHT22;29774;52.664;5.074;2023-01-08T16:18:41;9.60;78.10
44111;DHT22;29774;52.664;5.074;2023-01-08T16:21:08;9.40;79.10
44111;DHT22;29774;52.664;5.074;2023-01-08T16:23:38;9.40;79.60
44111;DHT22;29774;52.664;5.074;2023-01-08T16:26:09;9.40;79.70
44111;DHT22;29774;52.664;5.074;2023-01-08T16:28:35;9.30;79.80
44111;DHT22;29774;52.664;5.074;2023-01-08T16:31:01;9.10;79.80
44111;DHT22;29774;52.664;5.074;2023-01-08T16:33:27;8.90;80.40
44111;DHT22;29774;52.664;5.074;2023-01-08T16:36:00;9.00;81.40
44111;DHT22;29774;52.664;5.074;2023-01-08T16:38:26;9.10;81.70
44111;DHT22;29774;52.664;5.074;2023-01-08T16:40:53;9.00;80.90
44111;DHT22;29774;52.664;5.074;2023-01-08T16:43:21;9.20;81.50
44111;DHT22;29774;52.664;5.074;2023-01-08T16:45:48;9.10;81.30
44111;DHT22;29774;52.664;5.074;2023-01-08T16:48:14;9.30;81.70
44111;DHT22;29774;52.664;5.074;2023-01-08T16:50:43;9.20;81.30
44111;DHT22;29774;52.664;5.074;2023-01-08T16:53:09;8.90;80.80
44111;DHT22;29774;52.664;5.074;2023-01-08T16:55:39;8.90;81.10
44111;DHT22;29774;52.664;5.074;2023-01-08T16:58:06;8.90;81.60